Time;durP1;ratioP1;P1;durP2;ratioP2;P2;SDS_P1;SDS_P2;PMS_P1;PMS_P2;Temp;Humidity;BMP_temperature;BMP_pressure;BME280_temperature;BME280_humidity;BME280_pressure;Samples;Min_cycle;Max_cycle;Signal;HPM_P1;HPM_P2
2020/12/11 00:00:47;;;;;;;24.43;12.23;;;;;;;3.19;69.03;100982.59;1796607;77;21160;-55
2020/12/11 00:03:15;;;;;;;20.55;11.95;;;;;;;3.15;69.09;100982.72;1797843;77;22597;-56
2020/12/11 00:05:43;;;;;;;22.93;12.33;;;;;;;3.10;69.11;100985.95;1795006;77;21136;-56
2020/12/11 00:08:12;;;;;;;22.02;12.30;;;;;;;3.06;69.24;100981.80;1793220;77;21152;-56
2020/12/11 00:10:40;;;;;;;19.65;11.28;;;;;;;3.10;69.16;100978.16;1793938;77;21615;-56
2020/12/11 00:13:08;;;;;;;14.98;10.10;;;;;;;3.20;68.98;100988.20;1794107;77;21203;-56
2020/12/11 00:15:36;;;;;;;23.60;12.15;;;;;;;3.27;68.92;100983.14;1793542;77;22116;-55
2020/12/11 00:18:06;;;;;;;18.90;10.25;;;;;;;3.33;68.79;100981.61;1761900;79;21226;-56
2020/12/11 00:20:33;;;;;;;20.17;11.78;;;;;;;3.33;68.84;100990.72;1741912;79;21629;-57
2020/12/11 00:23:04;;;;;;;20.65;11.53;;;;;;;3.31;68.88;100984.70;1796548;77;21178;-56
2020/12/11 00:25:32;;;;;;;19.62;11.18;;;;;;;3.32;68.89;100982.05;1798047;77;21167;-56
2020/12/11 00:27:59;;;;;;;22.27;11.35;;;;;;;3.33;68.81;100991.55;1794575;77;21353;-56
2020/12/11 00:30:27;;;;;;;20.32;11.65;;;;;;;3.30;68.80;100984.33;1797113;77;21180;-56
2020/12/11 00:32:55;;;;;;;22.35;11.80;;;;;;;3.27;68.85;100986.58;1794796;77;21914;-56
2020/12/11 00:35:23;;;;;;;18.80;11.35;;;;;;;3.23;68.81;100982.86;1794394;77;21117;-56
2020/12/11 00:37:50;;;;;;;22.90;12.07;;;;;;;3.17;68.89;100981.36;1792620;77;21458;-55
2020/12/11 00:40:18;;;;;;;20.82;11.68;;;;;;;3.18;68.84;100978.30;1794057;77;21714;-56
2020/12/11 00:42:45;;;;;;;18.05;10.38;;;;;;;3.25;68.67;100976.70;1798226;77;21060;-56
2020/12/11 00:45:13;;;;;;;19.42;10.38;;;;;;;3.30;68.59;100981.27;1797936;77;21159;-56
2020/12/11 00:47:40;;;;;;;19.35;10.93;;;;;;;3.32;68.57;100978.60;1775847;77;21124;-56
2020/12/11 00:50:08;;;;;;;23.05;11.48;;;;;;;3.30;68.72;100972.16;1795887;77;21179;-56
2020/12/11 00:52:36;;;;;;;18.37;10.48;;;;;;;3.31;68.77;100969.96;1795786;77;21361;-56
2020/12/11 00:55:04;;;;;;;18.98;10.93;;;;;;;3.32;68.75;100964.30;1796710;77;21183;-56
2020/12/11 00:57:31;;;;;;;20.92;11.15;;;;;;;3.32;68.71;100965.59;1789439;77;21198;-56
2020/12/11 00:59:58;;;;;;;17.10;10.68;;;;;;;3.28;68.70;100964.04;1796883;77;21178;-56
2020/12/11 01:02:26;;;;;;;20.17;10.23;;;;;;;3.23;68.75;100966.82;1793258;77;21187;-55
2020/12/11 01:04:55;;;;;;;19.17;10.32;;;;;;;3.16;68.83;100962.75;1796922;77;21436;-56
2020/12/11 01:07:24;;;;;;;19.65;10.15;;;;;;;3.08;68.96;100965.67;1794207;77;21116;-57
2020/12/11 01:09:53;;;;;;;17.20;11.18;;;;;;;3.09;69.02;100966.08;1795287;77;21184;-57
2020/12/11 01:12:20;;;;;;;20.57;9.65;;;;;;;3.19;68.86;100970.90;1790297;77;22000;-56
2020/12/11 01:14:47;;;;;;;18.67;9.40;;;;;;;3.26;68.77;100973.64;1790862;77;21168;-57
2020/12/11 01:17:15;;;;;;;17.45;8.70;;;;;;;3.29;68.67;100970.45;1794468;77;23655;-56
2020/12/11 01:19:43;;;;;;;18.45;10.48;;;;;;;3.30;68.83;100968.72;1798047;77;22559;-56
2020/12/11 01:22:11;;;;;;;20.27;10.32;;;;;;;3.32;68.84;100965.59;1799417;77;21176;-57
2020/12/11 01:24:39;;;;;;;17.12;9.80;;;;;;;3.32;68.80;100965.13;1797311;77;21224;-57
2020/12/11 01:27:06;;;;;;;17.55;9.00;;;;;;;3.29;68.75;100961.81;1797064;77;21184;-57
2020/12/11 01:29:34;;;;;;;18.90;9.78;;;;;;;3.27;68.85;100962.34;1792361;79;21231;-57
2020/12/11 01:32:03;;;;;;;21.00;9.88;;;;;;;3.23;68.90;100952.95;1796698;78;21199;-56
2020/12/11 01:34:31;;;;;;;15.98;9.18;;;;;;;3.20;68.94;100956.53;1792827;78;21199;-57
2020/12/11 01:37:05;;;;;;;17.35;9.43;;;;;;;3.18;68.98;100953.59;1796399;78;21657;-57
2020/12/11 01:39:33;;;;;;;18.48;10.35;;;;;;;3.21;68.90;100950.44;1794141;78;21176;-58
2020/12/11 01:42:01;;;;;;;19.65;10.30;;;;;;;3.32;68.62;100952.59;1792475;78;21190;-56
2020/12/11 01:44:28;;;;;;;20.80;9.40;;;;;;;3.40;68.47;100957.03;1793815;78;21176;-56
2020/12/11 01:46:57;;;;;;;14.75;9.28;;;;;;;3.42;68.42;100948.70;1793201;78;21191;-57
2020/12/11 01:49:24;;;;;;;20.80;9.43;;;;;;;3.42;68.36;100947.86;1794675;78;21159;-56
2020/12/11 01:51:53;;;;;;;16.32;8.05;;;;;;;3.37;68.51;100940.24;1779246;79;21748;-57
2020/12/11 01:54:21;;;;;;;16.25;9.85;;;;;;;3.37;68.56;100940.70;1755137;78;22580;-57
2020/12/11 01:57:05;;;;;;;19.12;9.90;;;;;;;3.34;68.56;100932.56;1796226;78;21175;-56
2020/12/11 01:59:39;;;;;;;20.68;10.53;;;;;;;3.29;68.58;100933.20;1794192;78;22454;-57
2020/12/11 02:02:09;;;;;;;13.72;8.63;;;;;;;3.22;68.70;100935.20;1792800;78;21182;-57
2020/12/11 02:04:38;;;;;;;20.37;10.25;;;;;;;3.18;68.82;100934.08;1794114;78;21163;-57
2020/12/11 02:07:05;;;;;;;16.27;9.00;;;;;;;3.13;68.87;100932.99;1752414;80;22253;-57
2020/12/11 02:09:34;;;;;;;16.07;9.25;;;;;;;3.12;68.92;100932.13;1791335;78;21179;-57
2020/12/11 02:12:03;;;;;;;14.23;8.98;;;;;;;3.18;68.73;100933.66;1753660;80;21159;-57
2020/12/11 02:14:30;;;;;;;16.37;9.20;;;;;;;3.24;68.68;100935.15;1752153;80;21912;-57
2020/12/11 02:17:04;;;;;;;15.90;8.73;;;;;;;3.30;68.63;100938.34;1794472;78;21170;-56
2020/12/11 02:19:35;;;;;;;16.97;9.35;;;;;;;3.32;68.70;100931.78;1774297;80;21412;-56
2020/12/11 02:22:05;;;;;;;14.75;8.15;;;;;;;3.33;68.69;100932.19;1794976;78;21192;-57
2020/12/11 02:24:33;;;;;;;15.80;8.70;;;;;;;3.31;68.65;100934.84;1772270;80;21798;-57
2020/12/11 02:27:01;;;;;;;15.55;9.58;;;;;;;3.26;68.60;100932.02;1774372;80;21150;-57
2020/12/11 02:29:29;;;;;;;14.40;8.90;;;;;;;3.16;68.70;100928.52;1797750;77;21466;-57
2020/12/11 02:31:56;;;;;;;17.75;8.63;;;;;;;3.14;68.87;100932.06;1763376;80;21372;-57
2020/12/11 02:34:24;;;;;;;15.23;9.05;;;;;;;3.12;68.91;100929.52;1743502;79;21187;-57
2020/12/11 02:36:51;;;;;;;16.05;10.38;;;;;;;3.08;68.94;100936.23;1795340;77;21152;-57
2020/12/11 02:39:19;;;;;;;16.57;8.55;;;;;;;3.11;68.87;100934.78;1795432;77;21187;-56
2020/12/11 02:41:48;;;;;;;15.90;8.73;;;;;;;3.21;68.70;100932.23;1794967;77;21163;-57
2020/12/11 02:44:15;;;;;;;14.28;7.62;;;;;;;3.29;68.51;100937.10;1797217;77;22367;-57
2020/12/11 02:46:43;;;;;;;13.50;8.38;;;;;;;3.34;68.46;100941.20;1793983;77;21215;-57
2020/12/11 02:49:11;;;;;;;14.40;8.85;;;;;;;3.35;68.45;100940.77;1760601;80;21171;-56
2020/12/11 02:51:38;;;;;;;16.73;8.75;;;;;;;3.36;68.42;100948.94;1745720;79;21243;-57
2020/12/11 02:54:06;;;;;;;18.17;8.45;;;;;;;3.36;68.34;100950.24;1793604;77;21739;-57
2020/12/11 02:56:34;;;;;;;18.52;9.13;;;;;;;3.33;68.37;100948.63;1794870;77;21368;-56
2020/12/11 02:59:03;;;;;;;14.60;7.90;;;;;;;3.29;68.39;100944.91;1801024;77;21446;-57
2020/12/11 03:01:30;;;;;;;16.77;8.90;;;;;;;3.25;68.47;100947.25;1794266;77;21203;-57
2020/12/11 03:03:58;;;;;;;15.93;8.95;;;;;;;3.22;68.59;100953.41;1796491;77;21792;-56
2020/12/11 03:06:31;;;;;;;20.27;9.13;;;;;;;3.20;68.51;100953.94;1798007;77;21175;-57
2020/12/11 03:09:00;;;;;;;16.57;7.92;;;;;;;3.19;68.54;100946.19;1796452;77;21339;-57
2020/12/11 03:11:27;;;;;;;23.02;9.33;;;;;;;3.25;68.43;100952.45;1794832;77;21778;-57
2020/12/11 03:13:54;;;;;;;13.72;7.83;;;;;;;3.34;68.17;100949.00;1796064;77;21544;-57
2020/12/11 03:16:23;;;;;;;13.03;7.25;;;;;;;3.39;67.97;100951.42;1798513;77;21179;-57
2020/12/11 03:18:51;;;;;;;11.05;7.65;;;;;;;3.42;68.02;100949.16;1796698;77;21092;-57
2020/12/11 03:21:20;;;;;;;16.75;8.43;;;;;;;3.40;68.04;100948.39;1797923;77;21249;-57
2020/12/11 03:23:49;;;;;;;13.95;7.80;;;;;;;3.39;68.11;100946.22;1794879;77;21519;-57
2020/12/11 03:26:17;;;;;;;15.90;8.63;;;;;;;3.40;68.09;100941.42;1793590;77;21120;-57
2020/12/11 03:28:45;;;;;;;11.18;7.00;;;;;;;3.39;68.10;100946.22;1794292;77;21231;-57
2020/12/11 03:31:12;;;;;;;13.53;7.83;;;;;;;3.35;68.08;100937.70;1792941;78;21210;-58
2020/12/11 03:33:40;;;;;;;14.70;7.83;;;;;;;3.31;68.09;100932.68;1791984;78;21354;-57
2020/12/11 03:36:07;;;;;;;16.35;7.22;;;;;;;3.27;68.15;100936.33;1789494;78;21164;-56
2020/12/11 03:38:35;;;;;;;16.27;7.78;;;;;;;3.21;68.17;100939.17;1789954;78;21575;-59
2020/12/11 03:41:02;;;;;;;15.78;7.90;;;;;;;3.17;68.23;100943.65;1790392;78;22528;-57
2020/12/11 03:43:32;;;;;;;14.73;7.70;;;;;;;3.22;68.09;100947.38;1791035;78;21199;-58
2020/12/11 03:45:59;;;;;;;12.47;7.37;;;;;;;3.28;67.98;100944.53;1790023;78;21643;-57
2020/12/11 03:48:27;;;;;;;14.87;7.28;;;;;;;3.35;67.94;100955.91;1785836;78;21172;-56
2020/12/11 03:50:54;;;;;;;14.45;7.47;;;;;;;3.40;67.86;100944.48;1788877;78;21566;-56
2020/12/11 03:53:22;;;;;;;13.62;6.85;;;;;;;3.40;67.81;100958.33;1742992;80;21182;-58
2020/12/11 03:55:51;;;;;;;13.68;7.72;;;;;;;3.39;67.79;100952.72;1741627;81;21151;-57
2020/12/11 03:58:21;;;;;;;13.00;7.60;;;;;;;3.38;67.75;100952.35;1740694;81;21760;-57
2020/12/11 04:00:50;;;;;;;14.25;7.90;;;;;;;3.33;67.78;100955.13;1748998;80;21194;-57
2020/12/11 04:03:17;;;;;;;10.93;6.85;;;;;;;3.29;67.87;100957.91;1741592;80;21213;-56
2020/12/11 04:05:45;;;;;;;14.85;7.70;;;;;;;3.23;67.93;100950.34;1734741;80;21560;-57
2020/12/11 04:08:13;;;;;;;13.22;7.60;;;;;;;3.16;67.96;100959.72;1770182;80;21159;-57
2020/12/11 04:10:41;;;;;;;13.60;8.05;;;;;;;3.12;67.96;100962.49;1771175;80;22115;-57
2020/12/11 04:13:08;;;;;;;15.98;7.50;;;;;;;3.08;67.94;100955.27;1749446;80;21234;-57
2020/12/11 04:15:36;;;;;;;15.13;7.70;;;;;;;3.11;67.95;100962.95;1741215;80;21233;-57
2020/12/11 04:18:03;;;;;;;14.07;7.22;;;;;;;3.20;67.71;100961.73;1735528;80;21230;-57
2020/12/11 04:20:34;;;;;;;16.02;8.03;;;;;;;3.26;67.63;100958.03;1769214;80;21159;-57
2020/12/11 04:23:02;;;;;;;15.72;6.78;;;;;;;3.29;67.53;100956.61;1750187;80;21229;-57
2020/12/11 04:25:29;;;;;;;12.35;7.00;;;;;;;3.26;67.61;100955.43;1740872;80;21863;-57
2020/12/11 04:27:57;;;;;;;13.08;6.80;;;;;;;3.25;67.63;100960.26;1758607;80;21224;-57
2020/12/11 04:30:25;;;;;;;12.00;7.58;;;;;;;3.25;67.65;100958.95;1746135;79;21203;-58
2020/12/11 04:32:54;;;;;;;12.75;7.30;;;;;;;3.26;67.63;100956.73;1747023;79;21196;-57
2020/12/11 04:35:21;;;;;;;18.07;7.50;;;;;;;3.23;67.43;100954.25;1720427;82;21424;-59
2020/12/11 04:37:51;;;;;;;13.78;6.37;;;;;;;3.15;67.48;100960.61;1720017;82;21509;-61
2020/12/11 04:40:18;;;;;;;14.53;6.92;;;;;;;3.10;67.56;100961.25;1720760;82;21426;-59
2020/12/11 04:42:48;;;;;;;14.90;7.95;;;;;;;3.01;67.63;100959.03;1747201;79;21215;-59
2020/12/11 04:45:16;;;;;;;14.28;6.80;;;;;;;2.95;67.71;100954.06;1748047;79;21449;-59
2020/12/11 04:47:44;;;;;;;12.50;6.33;;;;;;;3.00;67.42;100961.22;1745601;79;21846;-56
2020/12/11 04:50:18;;;;;;;19.27;7.00;;;;;;;3.06;67.36;100965.33;1745565;79;21590;-57
2020/12/11 04:52:47;;;;;;;13.43;6.75;;;;;;;3.12;67.35;100965.09;1721441;82;21200;-59
2020/12/11 04:55:17;;;;;;;13.08;6.65;;;;;;;3.13;67.29;100965.50;1721634;81;21199;-59
2020/12/11 04:57:51;;;;;;;14.07;6.90;;;;;;;3.10;67.07;100963.85;1745750;79;21168;-57
2020/12/11 05:00:22;;;;;;;17.32;7.70;;;;;;;3.03;67.01;100971.51;1747920;79;25829;-58
2020/12/11 05:02:51;;;;;;;16.48;7.40;;;;;;;2.92;66.99;100976.27;1747897;79;21814;-63
2020/12/11 05:05:20;;;;;;;15.60;8.13;;;;;;;2.83;67.11;100975.34;1720973;82;21183;-63
2020/12/11 05:07:49;;;;;;;12.63;7.12;;;;;;;2.78;67.25;100976.80;1719210;82;21243;-63
2020/12/11 05:10:18;;;;;;;12.47;6.65;;;;;;;2.73;67.26;100980.03;1748257;79;21182;-63
2020/12/11 05:12:45;;;;;;;22.48;7.50;;;;;;;2.65;67.25;100980.31;1745245;79;21946;-63
2020/12/11 05:15:13;;;;;;;12.37;7.67;;;;;;;2.57;67.40;100980.61;1747833;79;21231;-63
2020/12/11 05:17:41;;;;;;;12.43;6.70;;;;;;;2.53;67.28;100984.67;1748451;79;21606;-63
2020/12/11 05:20:12;;;;;;;17.95;8.50;;;;;;;2.51;67.36;100985.19;1747035;79;21716;-64
2020/12/11 05:22:40;;;;;;;14.70;7.30;;;;;;;2.48;67.05;100996.98;1750970;79;21818;-63
2020/12/11 05:25:13;;;;;;;13.60;7.47;;;;;;;2.43;67.20;100987.22;1745908;79;21364;-63
2020/12/11 05:27:43;;;;;;;14.10;8.00;;;;;;;2.41;67.11;100995.06;1743885;79;21199;-64
2020/12/11 05:30:16;;;;;;;16.90;8.30;;;;;;;2.37;66.78;100993.45;1748441;79;21112;-63
2020/12/11 05:32:55;;;;;;;12.47;8.15;;;;;;;2.31;66.79;100991.11;1747344;79;21792;-63
2020/12/11 05:35:26;;;;;;;13.68;7.47;;;;;;;2.29;66.82;100996.34;1746504;79;21192;-63
2020/12/11 05:38:06;;;;;;;14.83;7.60;;;;;;;2.21;66.85;100996.61;1749929;79;21190;-64
2020/12/11 05:40:37;;;;;;;16.55;8.10;;;;;;;2.16;66.94;101001.12;1747041;79;22598;-64
2020/12/11 05:43:12;;;;;;;14.43;8.38;;;;;;;2.14;66.77;101001.62;1748044;79;21183;-63
2020/12/11 05:45:53;;;;;;;14.00;7.78;;;;;;;2.12;66.80;100997.38;1722135;82;21764;-64
2020/12/11 05:48:37;;;;;;;13.58;7.12;;;;;;;2.09;66.89;101000.11;1720743;82;21635;-65
2020/12/11 05:51:15;;;;;;;14.85;7.42;;;;;;;2.07;67.10;101002.75;1688101;82;21380;-66
2020/12/11 05:53:44;;;;;;;14.53;7.25;;;;;;;2.08;66.94;101003.59;1746267;79;22380;-65
2020/12/11 05:56:12;;;;;;;18.27;8.15;;;;;;;2.05;66.71;101004.53;1748111;79;21202;-65
2020/12/11 05:58:39;;;;;;;17.52;8.28;;;;;;;2.01;66.58;101008.98;1746291;79;21135;-65
2020/12/11 06:01:07;;;;;;;16.17;8.05;;;;;;;1.97;66.66;101013.90;1748150;79;21530;-65
2020/12/11 06:03:36;;;;;;;15.00;6.90;;;;;;;1.92;66.60;101014.51;1747339;79;21218;-63
2020/12/11 06:06:03;;;;;;;14.87;6.95;;;;;;;1.88;66.74;101010.30;1745154;79;21435;-60
2020/12/11 06:08:31;;;;;;;17.50;7.30;;;;;;;1.85;66.76;101011.73;1699701;80;21484;-65
2020/12/11 06:11:01;;;;;;;18.30;8.40;;;;;;;1.86;66.64;101014.25;1646962;82;21218;-62
2020/12/11 06:13:41;;;;;;;14.25;7.35;;;;;;;1.88;66.62;101013.36;1728698;80;21215;-66
2020/12/11 06:16:09;;;;;;;13.45;7.78;;;;;;;1.87;66.56;101009.92;1747609;79;21222;-66
2020/12/11 06:18:37;;;;;;;14.00;8.15;;;;;;;1.86;66.52;101013.41;1730116;79;21250;-65
2020/12/11 06:21:05;;;;;;;15.83;9.40;;;;;;;1.83;66.58;101014.80;1730862;81;21817;-67
2020/12/11 06:25:29;;;;;;;19.52;8.00;;;;;;;1.88;66.31;101013.36;1868602;74;22519;-59
2020/12/11 06:27:59;;;;;;;16.25;8.40;;;;;;;1.83;66.34;101019.98;1835276;76;21199;-59
2020/12/11 06:30:31;;;;;;;9.98;5.87;;;;;;;1.90;66.00;101015.02;1840404;76;22643;-58
2020/12/11 06:33:00;;;;;;;12.98;6.33;;;;;;;2.00;65.61;101017.69;1826190;77;21552;-58
2020/12/11 06:35:27;;;;;;;15.45;7.05;;;;;;;2.03;65.46;101018.89;1825628;77;21720;-59
2020/12/11 06:37:55;;;;;;;16.20;7.03;;;;;;;1.99;65.46;101015.15;1827096;77;21100;-59
2020/12/11 06:43:52;;;;;;;18.12;9.25;;;;;;;1.86;65.38;101015.55;1811383;76;28475;-59
2020/12/11 06:46:27;;;;;;;16.85;7.78;;;;;;;1.95;65.33;101023.92;1827449;76;21005;-58
2020/12/11 06:49:17;;;;;;;17.67;7.55;;;;;;;2.13;64.63;101015.96;1825338;77;22328;-59
2020/12/11 06:51:51;;;;;;;13.83;7.65;;;;;;;2.05;64.63;101016.21;1820316;77;21219;-59
2020/12/11 06:54:26;;;;;;;13.43;7.70;;;;;;;1.95;64.75;101014.84;1832997;76;21548;-61
2020/12/11 06:57:00;;;;;;;12.78;7.78;;;;;;;1.90;64.87;101011.55;1794536;77;21112;-62
2020/12/11 06:59:33;;;;;;;14.75;7.50;;;;;;;1.84;64.77;101005.67;1821325;77;21191;-60
2020/12/11 07:02:10;;;;;;;14.78;7.05;;;;;;;1.79;64.88;101017.95;1826245;77;21786;-59
2020/12/11 07:04:50;;;;;;;13.80;7.10;;;;;;;1.75;64.58;101014.20;1822861;77;21646;-59
2020/12/11 07:07:30;;;;;;;13.80;7.05;;;;;;;1.67;64.69;101008.83;1832513;77;21112;-59
2020/12/11 07:13:09;;;;;;;20.37;7.55;;;;;;;1.57;64.33;101004.01;1767539;78;21219;-60
2020/12/11 07:15:40;;;;;;;16.37;7.35;;;;;;;1.45;64.16;101008.69;1767646;78;21510;-61
2020/12/11 07:18:17;;;;;;;15.35;7.83;;;;;;;1.42;64.23;101012.67;1766484;78;21634;-60
2020/12/11 07:20:53;;;;;;;16.95;7.60;;;;;;;1.44;64.41;101004.84;1769267;78;21157;-59
2020/12/11 07:23:23;;;;;;;15.25;6.75;;;;;;;1.45;64.40;100998.77;1767871;78;21208;-59
2020/12/11 07:25:55;;;;;;;12.60;7.40;;;;;;;1.41;64.20;101002.34;1768194;78;21171;-59
2020/12/11 07:28:24;;;;;;;15.70;8.20;;;;;;;1.40;63.91;101000.66;1764980;78;21699;-59
2020/12/11 07:30:51;;;;;;;18.77;6.35;;;;;;;1.33;64.01;100991.36;1767206;78;21195;-59
2020/12/11 07:33:21;;;;;;;13.90;7.30;;;;;;;1.32;64.13;100995.70;1766654;78;21615;-59
2020/12/11 07:35:51;;;;;;;12.18;6.92;;;;;;;1.27;64.07;101001.03;1767951;78;21257;-59
2020/12/11 07:38:26;;;;;;;13.20;7.20;;;;;;;1.23;64.21;100997.31;1734087;80;21632;-60
2020/12/11 07:41:03;;;;;;;16.67;8.43;;;;;;;1.25;64.51;100993.76;1734683;80;21603;-60
2020/12/11 07:43:30;;;;;;;17.80;8.60;;;;;;;1.26;64.23;100990.28;1733550;80;21175;-59
2020/12/11 07:45:59;;;;;;;18.35;7.05;;;;;;;1.29;64.35;100990.19;1734743;80;21271;-59
2020/12/11 07:48:31;;;;;;;16.15;7.83;;;;;;;1.29;64.11;100988.89;1712487;81;21199;-59
2020/12/11 07:51:02;;;;;;;15.95;8.18;;;;;;;1.32;64.12;100992.28;1735161;80;21301;-59
2020/12/11 07:53:31;;;;;;;11.90;6.95;;;;;;;1.31;63.77;100995.30;1736499;80;21248;-60
2020/12/11 07:55:58;;;;;;;17.60;8.73;;;;;;;1.30;63.87;100990.56;1721140;81;21262;-60
2020/12/11 07:58:26;;;;;;;13.30;7.95;;;;;;;1.27;63.68;100993.25;1719583;81;22379;-60
2020/12/11 08:00:53;;;;;;;13.90;6.67;;;;;;;1.26;63.82;100987.69;1720915;81;21215;-60
2020/12/11 08:03:21;;;;;;;15.18;7.65;;;;;;;1.26;63.93;100984.23;1722919;81;21211;-60
2020/12/11 08:05:48;;;;;;;16.05;8.28;;;;;;;1.29;63.99;100990.19;1654834;82;21666;-60
2020/12/11 08:08:16;;;;;;;16.55;8.98;;;;;;;1.31;63.82;100995.30;1717505;82;21211;-60
2020/12/11 08:10:44;;;;;;;11.57;7.05;;;;;;;1.32;63.83;100994.88;1656664;82;21239;-60
2020/12/11 08:13:15;;;;;;;16.12;7.42;;;;;;;1.29;63.63;100995.38;1707578;81;21245;-60
2020/12/11 08:15:45;;;;;;;15.65;8.38;;;;;;;1.32;63.64;100994.88;1710611;81;21630;-61
2020/12/11 08:18:22;;;;;;;12.40;7.47;;;;;;;1.33;63.73;100994.83;1707355;81;21387;-60
2020/12/11 08:20:56;;;;;;;16.15;8.05;;;;;;;1.35;63.91;101003.86;1705448;82;21219;-60
2020/12/11 08:23:41;;;;;;;18.65;8.65;;;;;;;1.34;63.53;100998.26;1708339;81;21156;-60
2020/12/11 08:26:12;;;;;;;11.65;7.75;;;;;;;1.34;63.73;101002.98;1705135;81;21204;-60
2020/12/11 08:28:41;;;;;;;14.65;8.38;;;;;;;1.32;63.71;100994.41;1707636;82;21243;-60
2020/12/11 08:31:16;;;;;;;15.95;8.43;;;;;;;1.34;63.89;100990.48;1711388;81;21917;-61
2020/12/11 08:33:44;;;;;;;20.08;8.45;;;;;;;1.30;63.63;100998.34;1757050;79;21184;-61
2020/12/11 08:36:21;;;;;;;14.68;8.18;;;;;;;1.27;63.59;100990.66;1755825;80;21633;-60
2020/12/11 08:39:24;;;;;;;16.20;7.78;;;;;;;1.32;63.35;100994.41;1757992;79;21224;-61
2020/12/11 08:42:20;;;;;;;17.62;7.90;;;;;;;1.32;63.14;100990.52;1757904;79;21200;-61
2020/12/11 08:48:01;;;;;;;14.83;7.45;;;;;;;1.25;63.06;100983.39;1719643;81;21712;-58
2020/12/11 08:50:29;;;;;;;21.25;8.83;;;;;;;1.26;63.20;100990.28;1756579;79;21164;-59
2020/12/11 08:52:53;;;;;;;13.83;8.28;;;;;;;1.30;63.31;100993.63;1714548;81;21170;-59
2020/12/11 08:55:21;;;;;;;14.05;7.40;;;;;;;1.31;63.09;100986.22;1707971;81;21232;-59
2020/12/11 08:57:49;;;;;;;18.42;8.73;;;;;;;1.35;63.18;100994.78;1699596;82;21482;-59
2020/12/11 09:00:18;;;;;;;15.13;8.60;;;;;;;1.35;63.12;100989.13;1696954;82;21208;-59
2020/12/11 09:02:46;;;;;;;17.42;8.40;;;;;;;1.36;62.96;100992.56;1752265;79;21168;-59
2020/12/11 09:05:14;;;;;;;17.05;8.58;;;;;;;1.34;63.01;100989.18;1697721;82;21210;-59
2020/12/11 09:07:41;;;;;;;25.80;10.65;;;;;;;1.36;63.25;100982.20;1702852;82;21205;-59
2020/12/11 09:10:10;;;;;;;21.07;9.13;;;;;;;1.35;63.16;100982.65;1762724;79;21466;-59
2020/12/11 09:12:37;;;;;;;14.53;8.30;;;;;;;1.38;63.06;100983.86;1759683;79;21176;-59
2020/12/11 09:15:07;;;;;;;16.15;7.97;;;;;;;1.35;62.88;100987.84;1756627;79;21160;-59
2020/12/11 09:17:35;;;;;;;20.65;9.60;;;;;;;1.35;62.71;100977.47;1756177;80;21180;-59
2020/12/11 09:20:04;;;;;;;19.77;9.33;;;;;;;1.35;62.63;100978.77;1756947;79;21221;-59
2020/12/11 09:22:33;;;;;;;16.52;9.15;;;;;;;1.38;62.68;100971.31;1756262;79;21208;-59
2020/12/11 09:25:02;;;;;;;16.25;8.83;;;;;;;1.38;62.71;100973.91;1760683;79;21558;-61
2020/12/11 09:27:29;;;;;;;16.75;9.33;;;;;;;1.40;62.90;100974.73;1758054;79;21513;-59
2020/12/11 09:30:11;;;;;;;14.98;8.33;;;;;;;1.43;62.81;100967.70;1757549;79;21704;-60
2020/12/11 09:35:09;;;;;;;22.10;10.13;;;;;;;1.51;62.79;100963.53;1868919;74;22614;-61
2020/12/11 09:37:37;;;;;;;24.00;8.98;;;;;;;1.47;62.57;100956.77;1779476;78;21203;-59
2020/12/11 09:40:04;;;;;;;14.25;9.15;;;;;;;1.45;62.63;100959.41;1801943;77;22698;-59
2020/12/11 09:45:23;;;;;;;14.50;9.10;;;;;;;1.50;62.42;100957.97;1766214;78;21577;-60
2020/12/11 09:48:01;;;;;;;17.30;9.25;;;;;;;1.49;62.54;100952.37;1764610;79;21219;-59
2020/12/11 09:50:35;;;;;;;18.70;10.78;;;;;;;1.51;62.63;100952.32;1769661;78;21207;-60
2020/12/11 09:53:24;;;;;;;18.12;10.35;;;;;;;1.49;62.41;100948.02;1783404;78;21742;-58
2020/12/11 09:55:49;;;;;;;13.98;8.80;;;;;;;1.52;62.19;100944.95;1798337;77;21202;-60
2020/12/11 09:58:15;;;;;;;17.73;9.90;;;;;;;1.52;62.28;100942.36;1781073;78;21572;-60
2020/12/11 10:00:46;;;;;;;22.07;10.88;;;;;;;1.49;62.11;100940.24;1770344;78;21612;-59
2020/12/11 10:06:08;;;;;;;18.05;8.75;;;;;;;1.45;62.17;100932.64;1791622;78;22778;-59
2020/12/11 10:08:41;;;;;;;14.95;7.90;;;;;;;1.40;62.24;100933.23;1766632;79;21176;-58
2020/12/11 10:11:08;;;;;;;17.15;8.38;;;;;;;1.37;62.00;100935.93;1767106;78;21555;-59
2020/12/11 10:13:42;;;;;;;17.27;9.25;;;;;;;1.35;62.10;100935.14;1767486;79;21257;-59
2020/12/11 10:16:08;;;;;;;18.23;9.90;;;;;;;1.34;62.44;100933.44;1764136;79;21492;-59
2020/12/11 10:18:39;;;;;;;14.15;8.58;;;;;;;1.37;62.02;100926.39;1769815;79;21813;-59
2020/12/11 10:21:13;;;;;;;14.20;7.47;;;;;;;1.39;61.98;100915.98;1772650;79;22032;-59
2020/12/11 10:23:40;;;;;;;15.10;8.48;;;;;;;1.40;61.82;100909.91;1767999;78;21382;-59
2020/12/11 10:26:07;;;;;;;14.95;8.08;;;;;;;1.43;62.10;100918.42;1771873;78;21466;-59
2020/12/11 10:28:35;;;;;;;16.32;8.83;;;;;;;1.46;62.16;100925.23;1771434;78;21250;-60
2020/12/11 10:31:04;;;;;;;16.62;8.55;;;;;;;1.46;62.15;100922.22;1770899;78;21631;-59
2020/12/11 10:33:31;;;;;;;15.50;8.83;;;;;;;1.51;62.42;100918.14;1771106;78;21841;-60
2020/12/11 10:36:00;;;;;;;20.65;9.68;;;;;;;1.54;62.37;100914.16;1772209;78;21484;-59
2020/12/11 10:38:28;;;;;;;16.80;10.15;;;;;;;1.57;62.37;100914.06;1768730;78;21203;-59
2020/12/11 10:40:56;;;;;;;15.35;10.35;;;;;;;1.58;62.06;100912.30;1770338;78;21227;-59
2020/12/11 10:43:23;;;;;;;14.25;8.80;;;;;;;1.59;61.95;100912.25;1769160;78;21137;-59
2020/12/11 10:45:50;;;;;;;15.58;8.73;;;;;;;1.60;61.55;100906.64;1762528;78;21211;-59
2020/12/11 10:48:20;;;;;;;16.55;9.15;;;;;;;1.62;61.55;100909.56;1749605;80;21243;-59
2020/12/11 10:50:49;;;;;;;14.95;9.50;;;;;;;1.60;61.66;100903.58;1749186;80;21235;-59
2020/12/11 10:53:17;;;;;;;19.35;10.43;;;;;;;1.64;61.73;100907.75;1749559;80;21397;-59
2020/12/11 10:55:46;;;;;;;15.53;8.58;;;;;;;1.68;61.42;100912.38;1721265;81;21654;-60
2020/12/11 10:58:16;;;;;;;13.28;8.28;;;;;;;1.72;61.27;100904.06;1720543;81;21130;-59
2020/12/11 11:00:46;;;;;;;13.50;8.05;;;;;;;1.71;61.28;100906.25;1722700;81;22406;-60
2020/12/11 11:03:15;;;;;;;17.87;8.65;;;;;;;1.65;61.21;100907.33;1722133;81;21411;-59
2020/12/11 11:05:44;;;;;;;15.55;8.50;;;;;;;1.59;61.23;100914.01;1702126;82;21167;-59
2020/12/11 11:08:12;;;;;;;14.13;7.90;;;;;;;1.49;61.35;100903.93;1736885;80;21188;-59
2020/12/11 11:10:42;;;;;;;17.82;7.72;;;;;;;1.40;61.29;100906.02;1734944;81;21200;-59
2020/12/11 11:15:46;;;;;;;14.28;8.88;;;;;;;1.27;61.44;100907.70;1704531;82;21225;-59
2020/12/11 11:23:40;;;;;;;16.48;9.15;;;;;;;1.01;61.84;100905.10;1736654;81;20366;-59
2020/12/11 11:28:28;;;;;;;15.08;9.63;;;;;;;0.83;62.77;100899.61;1735279;81;21704;-59
2020/12/11 11:30:55;;;;;;;14.63;7.97;;;;;;;0.82;62.81;100905.68;1734571;80;21173;-59
2020/12/11 11:33:23;;;;;;;15.00;8.75;;;;;;;0.79;62.83;100890.69;1735564;80;21238;-59
2020/12/11 11:35:51;;;;;;;17.52;9.70;;;;;;;0.79;62.94;100902.34;1735241;80;21248;-60
2020/12/11 11:38:19;;;;;;;17.23;9.63;;;;;;;0.75;62.97;100900.30;1736820;80;21546;-60
2020/12/11 11:40:48;;;;;;;22.25;10.35;;;;;;;0.78;62.94;100902.80;1734313;81;21215;-60
2020/12/11 11:43:23;;;;;;;17.82;10.85;;;;;;;0.76;63.10;100905.02;1734337;81;21186;-60
2020/12/11 11:45:46;;;;;;;21.73;9.73;;;;;;;0.74;63.05;100907.69;1735379;80;21630;-60
2020/12/11 11:48:16;;;;;;;17.95;9.10;;;;;;;0.74;63.31;100905.94;1736746;80;21209;-60
2020/12/11 11:53:22;;;;;;;17.30;9.43;;;;;;;0.81;63.33;100910.91;1866150;74;22025;-58
2020/12/11 11:55:49;;;;;;;20.17;10.63;;;;;;;0.76;63.33;100907.61;1836262;75;21638;-59
2020/12/11 11:58:17;;;;;;;15.28;8.80;;;;;;;0.74;63.20;100911.11;1779767;79;22291;-58
2020/12/11 12:00:44;;;;;;;15.45;9.45;;;;;;;0.68;63.04;100914.34;1780067;78;21205;-58
2020/12/11 12:03:13;;;;;;;17.20;9.25;;;;;;;0.63;63.24;100906.70;1799784;77;21168;-58
2020/12/11 12:05:42;;;;;;;16.97;8.25;;;;;;;0.61;63.18;100905.07;1802100;77;21630;-58
2020/12/11 12:08:10;;;;;;;14.93;8.88;;;;;;;0.64;63.33;100903.23;1768221;78;21626;-58